createdAt,value
2023-06-29T00:02:13.399Z,20.87
2023-06-29T00:04:39.940Z,20.87
2023-06-29T00:07:06.677Z,20.83
2023-06-29T00:09:35.737Z,20.79
2023-06-29T00:12:02.439Z,20.77
2023-06-29T00:14:29.006Z,20.78
2023-06-29T00:16:55.525Z,20.77
2023-06-29T00:19:22.178Z,20.75
2023-06-29T00:21:48.760Z,20.74
2023-06-29T00:24:15.302Z,20.74
2023-06-29T00:26:43.323Z,20.71
2023-06-29T00:29:09.870Z,20.71
2023-06-29T00:31:36.492Z,20.70
2023-06-29T00:34:03.095Z,20.67
2023-06-29T00:36:29.616Z,20.66
2023-06-29T00:38:56.243Z,20.66
2023-06-29T00:41:22.823Z,20.66
2023-06-29T00:43:50.741Z,20.65
2023-06-29T00:46:19.355Z,20.65
2023-06-29T00:48:46.104Z,20.64
2023-06-29T00:51:12.927Z,20.61
2023-06-29T00:53:39.492Z,20.59
2023-06-29T00:56:06.156Z,20.59
2023-06-29T00:58:32.682Z,20.59
2023-06-29T01:01:00.603Z,20.57
2023-06-29T01:03:27.424Z,20.57
2023-06-29T01:05:57.241Z,20.57
2023-06-29T01:08:28.405Z,20.56
2023-06-29T01:10:56.357Z,20.56
2023-06-29T01:13:24.255Z,20.53
2023-06-29T01:15:51.768Z,20.51
2023-06-29T01:18:20.797Z,20.50
2023-06-29T01:20:48.186Z,20.49
2023-06-29T01:23:20.276Z,20.49
2023-06-29T01:25:48.136Z,20.48
2023-06-29T01:28:14.733Z,20.46
2023-06-29T01:30:41.269Z,20.47
2023-06-29T01:33:08.516Z,20.46
2023-06-29T01:35:35.069Z,20.46
2023-06-29T01:38:08.105Z,20.47
2023-06-29T01:40:38.367Z,20.46
2023-06-29T01:43:06.745Z,20.45
2023-06-29T01:45:35.145Z,20.46
2023-06-29T01:48:02.317Z,20.45
2023-06-29T01:50:29.275Z,20.44
2023-06-29T01:52:55.889Z,20.43
2023-06-29T01:55:22.529Z,20.42
2023-06-29T01:57:49.037Z,20.38
2023-06-29T02:00:17.449Z,20.37
2023-06-29T02:02:44.302Z,20.35
2023-06-29T02:05:10.957Z,20.34
2023-06-29T02:07:37.528Z,20.34
2023-06-29T02:10:04.798Z,20.33
2023-06-29T02:12:31.888Z,20.31
2023-06-29T02:14:58.463Z,20.31
2023-06-29T02:17:26.389Z,20.31
2023-06-29T02:19:53.022Z,20.31
2023-06-29T02:22:19.578Z,20.30
2023-06-29T02:24:46.131Z,20.29
2023-06-29T02:27:12.658Z,20.27
2023-06-29T02:29:39.195Z,20.27
2023-06-29T02:32:06.894Z,20.26
2023-06-29T02:34:34.759Z,20.25
2023-06-29T02:37:01.315Z,20.24
2023-06-29T02:39:27.865Z,20.24
2023-06-29T02:41:54.420Z,20.24
2023-06-29T02:44:20.979Z,20.23
2023-06-29T02:46:47.612Z,20.23
2023-06-29T02:49:14.462Z,20.22
2023-06-29T02:51:42.370Z,20.21
2023-06-29T02:54:08.944Z,20.21
2023-06-29T02:56:35.471Z,20.21
2023-06-29T02:59:02.057Z,20.21
2023-06-29T03:01:28.709Z,20.19
2023-06-29T03:03:55.307Z,20.18
2023-06-29T03:06:21.861Z,20.17
2023-06-29T03:08:49.794Z,20.16
2023-06-29T03:11:16.353Z,20.16
2023-06-29T03:13:42.874Z,20.16
2023-06-29T03:16:11.014Z,20.15
2023-06-29T03:18:37.808Z,20.13
2023-06-29T03:21:12.832Z,20.14
2023-06-29T03:23:43.807Z,20.13
2023-06-29T03:26:11.658Z,20.12
2023-06-29T03:28:38.201Z,20.12
2023-06-29T03:31:04.929Z,20.11
2023-06-29T03:33:31.520Z,20.11
2023-06-29T03:35:58.083Z,20.13
2023-06-29T03:38:24.692Z,20.13
2023-06-29T03:40:51.294Z,20.13
2023-06-29T03:43:19.148Z,20.12
2023-06-29T03:45:45.883Z,20.13
2023-06-29T03:48:12.756Z,20.12
2023-06-29T03:50:39.607Z,20.13
2023-06-29T03:53:06.181Z,20.14
2023-06-29T03:55:32.700Z,20.15
2023-06-29T03:57:59.292Z,20.17
2023-06-29T04:00:27.180Z,20.18
2023-06-29T04:02:53.729Z,20.19
2023-06-29T04:05:20.396Z,20.20
2023-06-29T04:07:46.920Z,20.20
2023-06-29T04:10:13.578Z,20.21
2023-06-29T04:12:40.143Z,20.21
2023-06-29T04:15:07.985Z,20.22
2023-06-29T04:17:35.941Z,20.23
2023-06-29T04:20:03.051Z,20.25
2023-06-29T04:22:29.604Z,20.27
2023-06-29T04:24:56.163Z,20.28
2023-06-29T04:27:22.703Z,20.29
2023-06-29T04:29:49.272Z,20.30
2023-06-29T04:32:15.812Z,20.31
2023-06-29T04:34:43.669Z,20.33
2023-06-29T04:37:10.330Z,20.35
2023-06-29T04:39:36.895Z,20.38
2023-06-29T04:42:03.746Z,20.38
2023-06-29T04:44:30.547Z,20.39
2023-06-29T04:46:57.070Z,20.41
2023-06-29T04:49:23.626Z,20.44
2023-06-29T04:51:51.574Z,20.43
2023-06-29T04:54:18.129Z,20.44
2023-06-29T04:56:44.645Z,20.45
2023-06-29T04:59:11.209Z,20.45
2023-06-29T05:01:37.757Z,20.45
2023-06-29T05:04:04.502Z,20.46
2023-06-29T05:06:31.054Z,20.48
2023-06-29T05:08:58.978Z,20.52
2023-06-29T05:11:25.527Z,20.55
2023-06-29T05:13:52.066Z,20.58
2023-06-29T05:16:19.051Z,20.62
2023-06-29T05:18:45.632Z,20.64
2023-06-29T05:21:13.143Z,20.65
2023-06-29T05:23:39.818Z,20.68
2023-06-29T05:26:07.723Z,20.70
2023-06-29T05:28:34.238Z,20.74
2023-06-29T05:31:00.964Z,20.74
2023-06-29T05:33:27.697Z,20.76
2023-06-29T05:35:54.267Z,20.78
2023-06-29T05:38:20.825Z,20.79
2023-06-29T05:40:47.379Z,20.79
2023-06-29T05:43:15.283Z,20.78
2023-06-29T05:45:41.825Z,20.78
2023-06-29T05:48:08.402Z,20.78
2023-06-29T05:50:34.939Z,20.78
2023-06-29T05:53:01.521Z,20.77
2023-06-29T05:55:28.079Z,20.78
2023-06-29T05:57:54.618Z,20.80
2023-06-29T06:00:22.630Z,20.82
2023-06-29T06:02:49.367Z,20.84
2023-06-29T06:05:16.212Z,20.84
2023-06-29T06:07:42.779Z,20.86
2023-06-29T06:10:09.967Z,20.89
2023-06-29T06:12:36.522Z,20.92
2023-06-29T06:15:03.177Z,20.98
2023-06-29T06:17:31.124Z,21.02
2023-06-29T06:19:57.797Z,21.06
2023-06-29T06:22:24.343Z,21.11
2023-06-29T06:24:50.889Z,21.18
2023-06-29T06:27:17.466Z,21.23
2023-06-29T06:29:44.399Z,21.23
2023-06-29T06:32:11.036Z,21.26
2023-06-29T06:34:39.002Z,21.31
2023-06-29T06:37:06.672Z,21.35
2023-06-29T06:39:33.217Z,21.41
2023-06-29T06:41:59.780Z,21.47
2023-06-29T06:44:26.357Z,21.53
2023-06-29T06:46:52.934Z,21.57
2023-06-29T06:49:19.504Z,21.62
2023-06-29T06:51:47.363Z,21.70
2023-06-29T06:54:13.918Z,21.79
2023-06-29T06:56:40.505Z,21.87
2023-06-29T06:59:07.058Z,21.91
2023-06-29T07:01:33.760Z,21.95
2023-06-29T07:04:00.336Z,21.99
2023-06-29T07:06:26.888Z,22.03
2023-06-29T07:08:54.796Z,22.07
2023-06-29T07:11:21.342Z,22.14
2023-06-29T07:13:47.887Z,22.24
2023-06-29T07:16:14.479Z,22.32
2023-06-29T07:19:02.228Z,22.39
2023-06-29T07:21:29.422Z,22.46
2023-06-29T07:26:26.849Z,22.62
2023-06-29T07:28:53.855Z,22.69
2023-06-29T07:31:24.491Z,22.74
2023-06-29T07:33:51.162Z,22.81
2023-06-29T07:36:17.772Z,22.88
2023-06-29T07:38:44.514Z,22.96
2023-06-29T07:41:12.478Z,23.01
2023-06-29T07:43:41.118Z,23.05
2023-06-29T07:46:10.791Z,23.06
2023-06-29T07:48:37.589Z,23.11
2023-06-29T07:51:04.259Z,23.13
2023-06-29T07:53:30.947Z,23.19
2023-06-29T07:55:57.508Z,23.27
2023-06-29T08:00:55.130Z,23.43
2023-06-29T08:03:21.699Z,23.45
2023-06-29T08:08:17.815Z,23.46
2023-06-29T08:10:44.824Z,23.49
2023-06-29T08:13:11.619Z,23.53
2023-06-29T08:15:39.557Z,23.55
2023-06-29T08:18:06.164Z,23.56
2023-06-29T08:20:32.714Z,23.55
2023-06-29T08:22:59.405Z,23.52
2023-06-29T08:25:25.951Z,23.52
2023-06-29T08:27:52.541Z,23.49
2023-06-29T08:30:19.163Z,23.44
2023-06-29T08:32:47.109Z,23.42
2023-06-29T08:35:13.755Z,23.40
2023-06-29T08:37:40.292Z,23.37
2023-06-29T08:40:08.117Z,23.34
2023-06-29T08:42:36.079Z,23.31
2023-06-29T08:45:02.958Z,23.33
2023-06-29T08:47:34.327Z,23.37
2023-06-29T08:50:05.814Z,23.41
2023-06-29T08:52:34.958Z,23.49
2023-06-29T08:55:02.000Z,23.53
2023-06-29T08:57:29.539Z,23.57
2023-06-29T08:59:56.637Z,23.59
2023-06-29T09:02:23.352Z,23.67
2023-06-29T09:04:49.950Z,23.76
2023-06-29T09:07:18.074Z,23.83
2023-06-29T09:09:44.618Z,23.90
2023-06-29T09:12:11.171Z,23.93
2023-06-29T09:14:39.062Z,23.97
2023-06-29T09:17:13.128Z,24.03
2023-06-29T09:19:39.688Z,24.13
2023-06-29T09:22:06.382Z,24.28
2023-06-29T09:24:34.351Z,24.43
2023-06-29T09:27:00.902Z,24.55
2023-06-29T09:29:27.453Z,24.63
2023-06-29T09:31:57.679Z,24.68
2023-06-29T09:34:26.927Z,24.68
2023-06-29T09:36:54.158Z,24.67
2023-06-29T09:39:21.246Z,24.68
2023-06-29T09:41:50.362Z,24.67
2023-06-29T09:44:18.688Z,24.72
2023-06-29T09:49:31.954Z,24.81
2023-06-29T09:52:03.749Z,24.88
2023-06-29T09:54:34.908Z,24.92
2023-06-29T09:57:03.584Z,24.99
2023-06-29T09:59:31.955Z,25.00
2023-06-29T10:01:58.725Z,24.98
2023-06-29T10:04:25.397Z,24.96
2023-06-29T10:07:00.891Z,24.96
2023-06-29T10:09:28.194Z,24.95
2023-06-29T10:11:56.368Z,24.93
2023-06-29T10:14:24.522Z,24.89
2023-06-29T10:16:52.458Z,24.86
2023-06-29T10:19:21.948Z,24.83
2023-06-29T10:21:52.128Z,24.79
2023-06-29T10:24:22.020Z,24.74
2023-06-29T10:26:49.249Z,24.71
2023-06-29T10:29:15.803Z,24.71
2023-06-29T10:31:48.152Z,24.71
2023-06-29T10:34:15.081Z,24.72
2023-06-29T10:36:45.720Z,24.73
2023-06-29T10:39:40.130Z,24.72
2023-06-29T10:42:10.767Z,24.71
2023-06-29T10:44:38.701Z,24.68
2023-06-29T10:47:07.048Z,24.63
2023-06-29T10:49:33.667Z,24.63
2023-06-29T10:52:02.583Z,24.62
2023-06-29T10:54:29.210Z,24.68
2023-06-29T10:57:00.647Z,24.78
2023-06-29T10:59:27.936Z,24.86
2023-06-29T11:01:55.199Z,24.96
2023-06-29T11:04:24.447Z,25.04
2023-06-29T11:06:51.205Z,25.14
2023-06-29T11:09:17.877Z,25.18
2023-06-29T11:11:46.693Z,25.18
2023-06-29T11:14:13.297Z,25.22
2023-06-29T11:16:40.194Z,25.18
2023-06-29T11:19:09.413Z,25.12
2023-06-29T11:21:38.911Z,25.03
2023-06-29T11:24:05.522Z,24.96
2023-06-29T11:26:32.196Z,24.91
2023-06-29T11:28:58.728Z,24.88
2023-06-29T11:31:25.659Z,24.87
2023-06-29T11:33:53.212Z,24.78
2023-06-29T11:36:29.317Z,24.70
2023-06-29T11:39:05.691Z,24.60
2023-06-29T11:41:32.586Z,24.54
2023-06-29T11:44:00.325Z,24.55
2023-06-29T11:46:27.340Z,24.54
2023-06-29T11:48:55.897Z,24.56
2023-06-29T11:51:23.307Z,24.57
2023-06-29T11:53:49.989Z,24.55
2023-06-29T11:56:25.580Z,24.50
2023-06-29T11:58:52.122Z,24.45
2023-06-29T12:01:20.456Z,24.43
2023-06-29T12:03:48.121Z,24.40
2023-06-29T12:06:14.766Z,24.40
2023-06-29T12:08:41.838Z,24.42
2023-06-29T12:11:15.758Z,24.43
2023-06-29T12:13:45.955Z,24.45
2023-06-29T12:18:42.685Z,24.44
2023-06-29T12:21:09.683Z,24.42
2023-06-29T12:23:36.400Z,24.39
2023-06-29T12:26:03.701Z,24.38
2023-06-29T12:28:30.249Z,24.36
2023-06-29T12:30:58.153Z,24.32
2023-06-29T12:33:24.660Z,24.28
2023-06-29T12:35:51.188Z,24.25
2023-06-29T12:38:17.701Z,24.25
2023-06-29T12:40:44.248Z,24.27
2023-06-29T12:43:12.336Z,24.28
2023-06-29T12:45:38.900Z,24.31
2023-06-29T12:48:07.441Z,24.31
2023-06-29T12:50:34.068Z,24.31
2023-06-29T12:53:00.596Z,24.28
2023-06-29T12:55:27.119Z,24.28
2023-06-29T12:57:53.686Z,24.24
2023-06-29T13:00:20.267Z,24.19
2023-06-29T13:02:47.528Z,24.13
2023-06-29T13:05:15.578Z,24.08
2023-06-29T13:07:42.414Z,24.05
2023-06-29T13:10:10.164Z,24.05
2023-06-29T13:12:36.730Z,24.10
2023-06-29T13:15:03.681Z,24.17
2023-06-29T13:17:30.202Z,24.24
2023-06-29T13:19:56.781Z,24.34
2023-06-29T13:22:24.665Z,24.45
2023-06-29T13:24:51.371Z,24.57
2023-06-29T13:27:17.984Z,24.63
2023-06-29T13:29:44.580Z,24.62
2023-06-29T13:32:11.477Z,24.58
2023-06-29T13:34:38.085Z,24.51
2023-06-29T13:37:05.333Z,24.45
2023-06-29T13:39:33.191Z,24.41
2023-06-29T13:41:59.764Z,24.41
2023-06-29T13:44:26.261Z,24.43
2023-06-29T13:46:52.807Z,24.44
2023-06-29T13:49:19.371Z,24.44
2023-06-29T13:51:47.145Z,24.43
2023-06-29T13:54:15.844Z,24.42
2023-06-29T13:56:44.321Z,24.39
2023-06-29T13:59:11.069Z,24.41
2023-06-29T14:01:39.280Z,24.43
2023-06-29T14:04:07.443Z,24.48
2023-06-29T14:06:36.149Z,24.52
2023-06-29T14:09:03.940Z,24.53
2023-06-29T14:11:30.584Z,24.57
2023-06-29T14:13:59.313Z,24.64
2023-06-29T14:16:26.296Z,24.75
2023-06-29T14:18:53.278Z,24.89
2023-06-29T14:21:20.143Z,24.98
2023-06-29T14:23:47.204Z,25.10
2023-06-29T14:26:14.209Z,25.27
2023-06-29T14:28:41.414Z,25.50
2023-06-29T14:31:09.784Z,25.72
2023-06-29T14:33:36.476Z,25.93
2023-06-29T14:36:04.249Z,26.05
2023-06-29T14:38:30.797Z,26.18
2023-06-29T14:40:57.366Z,26.23
2023-06-29T14:43:23.893Z,26.20
2023-06-29T14:45:51.581Z,26.15
2023-06-29T14:48:19.466Z,26.07
2023-06-29T14:50:47.820Z,26.06
2023-06-29T14:53:15.322Z,25.70
2023-06-29T14:55:44.462Z,25.10
2023-06-29T14:58:11.845Z,24.72
2023-06-29T15:00:38.522Z,24.27
2023-06-29T15:03:05.741Z,24.17
2023-06-29T15:05:33.826Z,23.84
2023-06-29T15:08:00.780Z,23.84
2023-06-29T15:10:27.406Z,23.76
2023-06-29T15:12:53.928Z,23.62
2023-06-29T15:15:20.600Z,23.42
2023-06-29T15:17:47.197Z,23.26
2023-06-29T15:20:14.682Z,23.13
2023-06-29T15:22:43.309Z,23.08
2023-06-29T15:25:10.245Z,22.99
2023-06-29T15:27:36.806Z,23.01
2023-06-29T15:30:03.669Z,22.77
2023-06-29T15:32:30.211Z,22.70
2023-06-29T15:34:56.729Z,22.58
2023-06-29T15:37:23.315Z,22.38
2023-06-29T15:39:51.215Z,22.39
2023-06-29T15:42:17.871Z,22.30
2023-06-29T15:44:44.424Z,22.20
2023-06-29T15:47:10.973Z,22.12
2023-06-29T15:49:37.532Z,21.94
2023-06-29T15:52:04.612Z,21.93
2023-06-29T15:54:31.103Z,21.93
2023-06-29T15:56:58.960Z,21.96
2023-06-29T15:59:25.518Z,21.98
2023-06-29T16:01:52.105Z,22.09
2023-06-29T16:04:18.792Z,22.04
2023-06-29T16:06:46.091Z,22.04
2023-06-29T16:09:12.677Z,22.06
2023-06-29T16:11:39.236Z,22.11
2023-06-29T16:14:07.592Z,22.17
2023-06-29T16:16:34.186Z,22.24
2023-06-29T16:19:00.931Z,22.30
2023-06-29T16:21:27.575Z,22.33
2023-06-29T16:23:54.164Z,22.37
2023-06-29T16:26:20.982Z,22.41
2023-06-29T16:28:47.531Z,22.43
2023-06-29T16:31:15.470Z,22.46
2023-06-29T16:33:42.103Z,22.47
2023-06-29T16:36:08.754Z,22.47
2023-06-29T16:38:35.322Z,22.47
2023-06-29T16:41:01.865Z,22.49
2023-06-29T16:43:28.392Z,22.48
2023-06-29T16:45:54.925Z,22.46
2023-06-29T16:48:22.955Z,22.44
2023-06-29T16:50:49.503Z,22.42
2023-06-29T16:53:16.079Z,22.39
2023-06-29T16:55:42.863Z,22.36
2023-06-29T16:58:09.451Z,22.34
2023-06-29T17:00:35.965Z,22.33
2023-06-29T17:03:02.684Z,22.32
2023-06-29T17:05:30.954Z,22.32
2023-06-29T17:07:57.520Z,22.35
2023-06-29T17:10:24.246Z,22.36
2023-06-29T17:12:51.667Z,22.37
2023-06-29T17:15:18.379Z,22.38
2023-06-29T17:17:45.486Z,22.38
2023-06-29T17:20:13.133Z,22.37
2023-06-29T17:22:41.101Z,22.33
2023-06-29T17:25:08.510Z,22.30
2023-06-29T17:27:35.065Z,22.25
2023-06-29T17:30:01.863Z,22.21
2023-06-29T17:32:28.487Z,22.14
2023-06-29T17:34:55.115Z,22.07
2023-06-29T17:37:21.666Z,22.05
2023-06-29T17:39:49.582Z,21.99
2023-06-29T17:42:20.227Z,21.95
2023-06-29T17:44:46.840Z,22.18
2023-06-29T17:47:13.556Z,22.21
2023-06-29T17:49:40.163Z,21.97
2023-06-29T17:52:07.476Z,21.77
2023-06-29T17:54:34.112Z,21.62
2023-06-29T17:57:01.992Z,21.59
2023-06-29T17:59:28.596Z,21.50
2023-06-29T18:01:55.291Z,21.42
2023-06-29T18:04:22.121Z,21.38
2023-06-29T18:06:48.863Z,21.33
2023-06-29T18:09:15.474Z,21.34
2023-06-29T18:11:42.025Z,21.39
2023-06-29T18:14:09.885Z,21.37
2023-06-29T18:16:36.463Z,21.30
2023-06-29T18:19:03.437Z,21.29
2023-06-29T18:21:29.993Z,21.27
2023-06-29T18:23:56.535Z,21.22
2023-06-29T18:26:23.085Z,21.23
2023-06-29T18:28:49.662Z,21.17
2023-06-29T18:31:17.761Z,21.25
2023-06-29T18:33:44.366Z,21.28
2023-06-29T18:36:10.961Z,21.27
2023-06-29T18:38:37.589Z,21.23
2023-06-29T18:41:04.140Z,21.21
2023-06-29T18:43:30.716Z,21.30
2023-06-29T18:45:57.361Z,21.42
2023-06-29T18:48:25.294Z,21.23
2023-06-29T18:50:51.827Z,21.27
2023-06-29T18:53:18.389Z,21.01
2023-06-29T18:55:45.278Z,20.97
2023-06-29T18:58:12.277Z,21.01
2023-06-29T19:00:38.843Z,20.74
2023-06-29T19:03:05.516Z,20.65
2023-06-29T19:05:33.465Z,20.39
2023-06-29T19:08:00.036Z,20.23
2023-06-29T19:10:26.601Z,20.06
2023-06-29T19:12:53.141Z,20.07
2023-06-29T19:15:19.678Z,20.09
2023-06-29T19:17:46.281Z,19.82
2023-06-29T19:20:13.192Z,19.86
2023-06-29T19:22:41.089Z,19.73
2023-06-29T19:25:08.430Z,19.65
2023-06-29T19:27:35.107Z,19.51
2023-06-29T19:30:01.726Z,19.58
2023-06-29T19:32:28.628Z,19.41
2023-06-29T19:34:55.236Z,19.33
2023-06-29T19:37:21.780Z,19.46
2023-06-29T19:39:49.688Z,19.47
2023-06-29T19:42:16.381Z,19.30
2023-06-29T19:44:42.963Z,19.35
2023-06-29T19:47:09.528Z,19.25
2023-06-29T19:49:36.110Z,19.13
2023-06-29T19:52:02.784Z,19.06
2023-06-29T19:54:29.320Z,18.94
2023-06-29T19:56:57.213Z,18.89
2023-06-29T19:59:23.922Z,18.89
2023-06-29T20:01:50.519Z,18.84
2023-06-29T20:04:17.268Z,18.96
2023-06-29T20:06:43.919Z,18.90
2023-06-29T20:09:10.492Z,18.92
2023-06-29T20:11:37.062Z,18.81
2023-06-29T20:14:04.966Z,18.86
2023-06-29T20:16:31.603Z,18.74
2023-06-29T20:18:58.196Z,18.66
2023-06-29T20:21:24.761Z,18.71
2023-06-29T20:23:51.357Z,18.67
2023-06-29T20:26:18.053Z,18.60
2023-06-29T20:28:44.639Z,18.54
2023-06-29T20:31:12.578Z,18.44
2023-06-29T20:33:39.254Z,18.44
2023-06-29T20:36:06.145Z,18.32
2023-06-29T20:38:32.844Z,18.42
2023-06-29T20:40:59.390Z,18.40
2023-06-29T20:43:25.960Z,18.48
2023-06-29T20:45:52.614Z,18.34
2023-06-29T20:48:20.609Z,18.21
2023-06-29T20:50:47.133Z,18.12
2023-06-29T20:53:13.677Z,17.90
2023-06-29T20:55:40.216Z,18.09
2023-06-29T20:58:06.842Z,17.96
2023-06-29T21:00:33.403Z,18.15
2023-06-29T21:02:59.977Z,17.94
2023-06-29T21:05:27.958Z,17.76
2023-06-29T21:07:54.541Z,17.78
2023-06-29T21:10:21.250Z,17.71
2023-06-29T21:12:48.296Z,17.66
2023-06-29T21:15:15.322Z,17.58
2023-06-29T21:17:42.125Z,17.36
2023-06-29T21:20:09.828Z,17.38
2023-06-29T21:22:39.181Z,17.29
2023-06-29T21:25:06.831Z,17.26
2023-06-29T21:27:35.858Z,17.19
2023-06-29T21:30:03.479Z,17.22
2023-06-29T21:32:30.302Z,17.07
2023-06-29T21:34:57.284Z,17.05
2023-06-29T21:37:24.143Z,17.10
2023-06-29T21:39:51.998Z,17.06
2023-06-29T21:42:19.117Z,17.08
2023-06-29T21:44:46.074Z,17.04
2023-06-29T21:47:12.825Z,16.92
2023-06-29T21:49:39.475Z,17.05
2023-06-29T21:52:07.138Z,16.99
2023-06-29T21:54:33.666Z,16.96
2023-06-29T21:57:01.568Z,16.91
2023-06-29T21:59:28.114Z,16.86
2023-06-29T22:01:54.770Z,16.83
2023-06-29T22:04:21.343Z,16.96
2023-06-29T22:06:50.059Z,16.99
2023-06-29T22:09:18.457Z,16.92
2023-06-29T22:11:45.047Z,16.88
2023-06-29T22:14:12.955Z,16.90
2023-06-29T22:16:39.541Z,16.82
2023-06-29T22:19:06.394Z,16.76
2023-06-29T22:21:32.933Z,16.87
2023-06-29T22:23:59.466Z,16.88
2023-06-29T22:26:26.020Z,16.84
2023-06-29T22:28:52.993Z,16.83
2023-06-29T22:31:21.033Z,16.78
2023-06-29T22:33:47.943Z,16.67
2023-06-29T22:36:15.278Z,16.64
2023-06-29T22:38:42.041Z,16.58
2023-06-29T22:41:08.646Z,16.58
2023-06-29T22:43:35.200Z,16.52
2023-06-29T22:46:01.830Z,16.51
2023-06-29T22:48:29.709Z,16.51
2023-06-29T22:50:56.281Z,16.48
2023-06-29T22:53:23.055Z,16.44
2023-06-29T22:55:49.600Z,16.43
2023-06-29T22:58:22.767Z,16.34
2023-06-29T23:00:49.388Z,16.25
2023-06-29T23:03:16.046Z,16.24
2023-06-29T23:05:44.455Z,16.27
2023-06-29T23:08:11.273Z,16.29
2023-06-29T23:10:38.046Z,16.34
2023-06-29T23:13:04.992Z,16.31
2023-06-29T23:15:31.530Z,16.31
2023-06-29T23:17:58.134Z,16.35
2023-06-29T23:20:24.749Z,16.27
2023-06-29T23:22:52.691Z,16.30
2023-06-29T23:25:19.380Z,16.25
2023-06-29T23:27:45.989Z,16.19
2023-06-29T23:30:14.399Z,16.10
2023-06-29T23:32:42.139Z,16.13
2023-06-29T23:35:10.008Z,16.15
2023-06-29T23:37:36.796Z,16.19
2023-06-29T23:40:07.182Z,16.23
2023-06-29T23:42:34.688Z,16.24
2023-06-29T23:45:01.342Z,16.27
2023-06-29T23:47:27.963Z,16.29
2023-06-29T23:49:54.490Z,16.33
2023-06-29T23:52:21.078Z,16.35
2023-06-29T23:54:47.614Z,16.36
2023-06-29T23:57:15.566Z,16.35
2023-06-29T23:59:42.120Z,16.31
